Terminal Aerodrome Forecast
Issued by NWS Springfield, MO

Home | Current Version | Previous Version | Text Only | Print | Product List | Glossary On
Versions: 1 2 3 4 5 6 7 8 9 10 11 12 13 14 15 16 17 18 19
000
FTUS43 KSGF 160500
TAFSGF
TAF
KSGF 160520Z 1606/1706 17004KT P6SM OVC007
      TEMPO 1608/1610 5SM BR OVC005
     FM161000 16003KT 4SM BR OVC003
      TEMPO 1610/1614 1/2SM FG OVC002
     FM161600 17005KT P6SM BKN015
     FM161900 11006KT P6SM SKC=

USA.gov is the U.S. government's official web portal to all federal, state and local government web resources and services.